X  SluitMETAR luchtvaart weer gegevens      EHKD De Kooy

Temperatuur

16°C Temperatuur

7°C Dauwpunt

55% Vochtigheid



Wind

 3 KM/U

 2 MPH

 1 M/S

 2 KTS



Kalm
Pal Noord
Huidig weer

Wat bewolking Wat bewolking
Luchtdruk 1016.92 (hPa) - 30.03 (in)
Zicht 6.2 (mi) - 10 (km)
Vliegveld
Vliegveld code EHKD

Locatie De Kooy 34 (km)

Metar:
EHKD 251525Z AUTO VRB02KT 9999 NCD 16/07 Q1017 BLU 35004KT 9999 FEW028

Tijd: 25-05-2019 17:25